Time;durP1;ratioP1;P1;durP2;ratioP2;P2;SDS_P1;SDS_P2;PMS_P1;PMS_P2;Temp;Humidity;BMP_temperature;BMP_pressure;BME280_temperature;BME280_humidity;BME280_pressure;Samples;Min_cycle;Max_cycle;Signal;HPM_P1;HPM_P2
2023/08/05 00:01:50;;;;;;;5.70;3.20;;;;;;;;;;5064102;28;20344;-56
2023/08/05 00:04:27;;;;;;;5.85;3.05;;;;;;;;;;5063989;28;20088;-57
2023/08/05 00:06:53;;;;;;;4.07;2.75;;;;;;;;;;5064222;28;20020;-55
2023/08/05 00:09:20;;;;;;;11.30;3.17;;;;;;;;;;5063614;28;20032;-57
2023/08/05 00:11:47;;;;;;;4.00;2.67;;;;;;;;;;5063780;28;20321;-61
2023/08/05 00:14:14;;;;;;;5.18;2.70;;;;;;;;;;5063980;28;20088;-55
2023/08/05 00:16:46;;;;;;;6.70;2.83;;;;;;;;;;5062985;28;20029;-60
2023/08/05 00:19:12;;;;;;;3.85;2.38;;;;;;;;;;5063849;28;20322;-53
2023/08/05 00:21:39;;;;;;;5.85;2.65;;;;;;;;;;5062512;28;20074;-53
2023/08/05 00:24:06;;;;;;;6.97;2.80;;;;;;;;;;5062842;28;20033;-55
2023/08/05 00:26:33;;;;;;;12.77;2.80;;;;;;;;;;5063726;28;20025;-54
2023/08/05 00:29:03;;;;;;;6.63;2.70;;;;;;;;;;5063756;28;20305;-58
2023/08/05 00:31:29;;;;;;;13.57;4.65;;;;;;;;;;5063640;28;20066;-52
2023/08/05 00:33:56;;;;;;;8.73;4.00;;;;;;;;;;5063525;28;20024;-53
2023/08/05 00:36:25;;;;;;;4.93;3.63;;;;;;;;;;5063951;28;20199;-55
2023/08/05 00:38:52;;;;;;;7.20;2.95;;;;;;;;;;5063462;28;20087;-56
2023/08/05 00:41:22;;;;;;;5.05;3.05;;;;;;;;;;5063880;28;20089;-54
2023/08/05 00:43:48;;;;;;;7.35;2.88;;;;;;;;;;5062882;28;20041;-54
2023/08/05 00:46:18;;;;;;;4.90;3.00;;;;;;;;;;5063598;28;20052;-55
2023/08/05 00:48:45;;;;;;;7.13;3.50;;;;;;;;;;5063795;28;20025;-57
2023/08/05 00:51:11;;;;;;;9.95;3.30;;;;;;;;;;5064079;28;20063;-58
2023/08/05 00:53:40;;;;;;;6.35;2.92;;;;;;;;;;5067222;28;20336;-53
2023/08/05 00:56:06;;;;;;;8.00;3.33;;;;;;;;;;5066215;28;20025;-57
2023/08/05 00:58:33;;;;;;;6.32;2.90;;;;;;;;;;5067281;28;20017;-59
2023/08/05 01:01:00;;;;;;;5.75;2.55;;;;;;;;;;5067082;28;20037;-54
2023/08/05 01:03:27;;;;;;;6.07;2.78;;;;;;;;;;5067620;28;20040;-55
2023/08/05 01:05:54;;;;;;;5.20;2.78;;;;;;;;;;5067656;28;20347;-56
2023/08/05 01:08:22;;;;;;;7.63;3.25;;;;;;;;;;5067266;28;20252;-58
2023/08/05 01:10:49;;;;;;;8.85;2.70;;;;;;;;;;5067201;28;20032;-54
2023/08/05 01:13:16;;;;;;;9.80;3.00;;;;;;;;;;5067074;28;20051;-54
2023/08/05 01:15:42;;;;;;;6.35;2.70;;;;;;;;;;5066793;28;20029;-55
2023/08/05 01:18:10;;;;;;;6.13;2.58;;;;;;;;;;5067062;28;20039;-54
2023/08/05 01:20:44;;;;;;;5.38;2.17;;;;;;;;;;5067003;28;20024;-56
2023/08/05 01:23:23;;;;;;;5.72;2.60;;;;;;;;;;5066975;28;20025;-54
2023/08/05 01:25:51;;;;;;;6.72;2.47;;;;;;;;;;5066899;28;20040;-56
2023/08/05 01:28:18;;;;;;;4.65;2.20;;;;;;;;;;5066729;28;20037;-53
2023/08/05 01:30:45;;;;;;;3.80;1.88;;;;;;;;;;5066843;28;20027;-57
2023/08/05 01:33:13;;;;;;;3.83;1.83;;;;;;;;;;5066707;28;20052;-60
2023/08/05 01:35:40;;;;;;;4.53;1.92;;;;;;;;;;5066533;28;20032;-55
2023/08/05 01:38:06;;;;;;;7.10;1.85;;;;;;;;;;5066518;28;20028;-58
2023/08/05 01:40:34;;;;;;;5.13;1.73;;;;;;;;;;5065482;28;20366;-49
2023/08/05 01:43:02;;;;;;;5.63;2.17;;;;;;;;;;5061071;28;20213;-59
2023/08/05 01:45:29;;;;;;;6.13;2.45;;;;;;;;;;5050482;28;20036;-56
2023/08/05 01:47:56;;;;;;;5.43;1.85;;;;;;;;;;5066940;28;20044;-48
2023/08/05 01:50:25;;;;;;;4.32;1.63;;;;;;;;;;5076950;28;20077;-58
2023/08/05 01:52:53;;;;;;;3.92;1.40;;;;;;;;;;5086968;28;20186;-54
2023/08/05 01:55:22;;;;;;;6.05;1.60;;;;;;;;;;5077432;28;20237;-58
2023/08/05 01:57:48;;;;;;;8.23;1.90;;;;;;;;;;5066643;28;20302;-54
2023/08/05 02:00:15;;;;;;;12.30;2.67;;;;;;;;;;5066376;28;20016;-53
2023/08/05 02:02:43;;;;;;;14.45;2.72;;;;;;;;;;5064920;28;20221;-60
2023/08/05 02:05:14;;;;;;;8.88;2.67;;;;;;;;;;5060063;28;20096;-58
2023/08/05 02:07:40;;;;;;;7.47;2.28;;;;;;;;;;5065431;28;20040;-57
2023/08/05 02:10:08;;;;;;;4.22;1.90;;;;;;;;;;5073563;28;20367;-59
2023/08/05 02:12:59;;;;;;;5.90;2.38;;;;;;;;;;5066185;28;20041;-57
2023/08/05 02:15:28;;;;;;;8.38;2.50;;;;;;;;;;5059253;28;20025;-56
2023/08/05 02:17:54;;;;;;;5.53;2.15;;;;;;;;;;5048197;28;20190;-59
2023/08/05 02:20:21;;;;;;;6.85;2.33;;;;;;;;;;5056260;28;20033;-53
2023/08/05 02:29:04;;;;;;;18.30;4.20;;;;;;;;;;5084345;28;20035;-58
2023/08/05 02:31:34;;;;;;;25.25;3.70;;;;;;;;;;5113334;28;20025;-56
2023/08/05 02:34:00;;;;;;;39.95;4.53;;;;;;;;;;5055834;28;20029;-60
2023/08/05 02:36:27;;;;;;;41.97;4.20;;;;;;;;;;5061377;28;20048;-62
2023/08/05 02:38:54;;;;;;;23.25;3.95;;;;;;;;;;5071150;28;20294;-58
2023/08/05 02:41:21;;;;;;;14.55;2.97;;;;;;;;;;5061765;28;20045;-65
2023/08/05 02:43:47;;;;;;;13.77;3.03;;;;;;;;;;5053716;28;20060;-59
2023/08/05 02:46:14;;;;;;;7.30;2.60;;;;;;;;;;5064838;28;20363;-57
2023/08/05 02:48:41;;;;;;;10.02;2.47;;;;;;;;;;5067279;28;20055;-56
2023/08/05 02:51:07;;;;;;;5.45;2.17;;;;;;;;;;5077841;28;20044;-60
2023/08/05 02:53:35;;;;;;;7.90;2.30;;;;;;;;;;5073982;28;20055;-64
2023/08/05 02:56:02;;;;;;;6.55;2.42;;;;;;;;;;5054284;28;20039;-58
2023/08/05 02:58:30;;;;;;;8.15;2.25;;;;;;;;;;5073292;28;20028;-60
2023/08/05 03:01:04;;;;;;;8.82;2.88;;;;;;;;;;5084705;28;20043;-58
2023/08/05 03:03:31;;;;;;;14.25;3.20;;;;;;;;;;5085130;28;20052;-58
2023/08/05 03:05:58;;;;;;;11.82;3.20;;;;;;;;;;5085006;28;20029;-62
2023/08/05 03:08:24;;;;;;;18.83;2.70;;;;;;;;;;5061465;28;20043;-59
2023/08/05 03:10:59;;;;;;;7.07;2.70;;;;;;;;;;5044974;28;20021;-58
2023/08/05 03:13:25;;;;;;;8.43;2.53;;;;;;;;;;5043737;28;20041;-65
2023/08/05 03:15:52;;;;;;;6.57;2.50;;;;;;;;;;5044292;28;20030;-61
2023/08/05 03:18:20;;;;;;;5.90;2.63;;;;;;;;;;5044729;28;20132;-61
2023/08/05 03:20:48;;;;;;;4.70;2.22;;;;;;;;;;5044635;28;20092;-63
2023/08/05 03:23:15;;;;;;;6.07;2.03;;;;;;;;;;5044661;28;20037;-59
2023/08/05 03:25:41;;;;;;;5.90;2.42;;;;;;;;;;5045119;28;20413;-59
2023/08/05 03:28:08;;;;;;;7.97;2.30;;;;;;;;;;5045305;28;20205;-63
2023/08/05 03:30:35;;;;;;;5.30;2.60;;;;;;;;;;5058467;28;20241;-62
2023/08/05 03:33:02;;;;;;;3.97;2.03;;;;;;;;;;5047245;28;20044;-65
2023/08/05 03:35:29;;;;;;;7.35;2.25;;;;;;;;;;5055476;28;20021;-60
2023/08/05 03:37:56;;;;;;;6.38;2.20;;;;;;;;;;5045407;28;20044;-58
2023/08/05 03:40:22;;;;;;;3.22;1.90;;;;;;;;;;5051177;28;20059;-59
2023/08/05 03:42:49;;;;;;;5.55;2.30;;;;;;;;;;5049451;28;20030;-57
2023/08/05 03:45:16;;;;;;;4.45;2.10;;;;;;;;;;5052053;28;20201;-62
2023/08/05 03:47:42;;;;;;;7.28;2.30;;;;;;;;;;5055406;28;20016;-61
2023/08/05 03:50:09;;;;;;;6.03;2.40;;;;;;;;;;5064141;28;20029;-58
2023/08/05 03:52:36;;;;;;;4.13;2.15;;;;;;;;;;5063917;28;20025;-58
2023/08/05 03:55:03;;;;;;;5.97;2.40;;;;;;;;;;5064405;28;20021;-57
2023/08/05 03:57:30;;;;;;;5.80;2.20;;;;;;;;;;5063667;28;20036;-56
2023/08/05 03:59:57;;;;;;;6.03;2.35;;;;;;;;;;5064312;28;20048;-58
2023/08/05 04:02:23;;;;;;;4.65;2.53;;;;;;;;;;5053490;28;20092;-59
2023/08/05 04:04:51;;;;;;;5.95;2.70;;;;;;;;;;5064173;28;20029;-63
2023/08/05 04:07:23;;;;;;;7.68;3.20;;;;;;;;;;5048367;28;20060;-64
2023/08/05 04:09:52;;;;;;;18.83;3.15;;;;;;;;;;5049972;28;20107;-64
2023/08/05 04:12:19;;;;;;;6.57;2.88;;;;;;;;;;5058340;28;20217;-63
2023/08/05 04:14:45;;;;;;;7.45;2.90;;;;;;;;;;5064028;28;20029;-59
2023/08/05 04:17:14;;;;;;;7.93;2.75;;;;;;;;;;5063692;28;20024;-60
2023/08/05 04:19:42;;;;;;;7.53;2.95;;;;;;;;;;5064058;28;20075;-61
2023/08/05 04:22:08;;;;;;;5.38;2.60;;;;;;;;;;5054392;28;20033;-60
2023/08/05 04:24:36;;;;;;;6.20;2.92;;;;;;;;;;5044176;28;20017;-59
2023/08/05 04:27:03;;;;;;;6.13;2.40;;;;;;;;;;5051369;28;20036;-60
2023/08/05 04:29:30;;;;;;;7.07;2.65;;;;;;;;;;5047545;28;20037;-61
2023/08/05 04:31:56;;;;;;;5.85;2.60;;;;;;;;;;5047807;28;20255;-59
2023/08/05 04:34:23;;;;;;;4.88;2.90;;;;;;;;;;5055727;28;20040;-58
2023/08/05 04:36:50;;;;;;;4.30;2.47;;;;;;;;;;5061395;28;20316;-60
2023/08/05 04:39:17;;;;;;;5.60;2.85;;;;;;;;;;5054003;28;20358;-59
2023/08/05 04:41:45;;;;;;;6.20;2.50;;;;;;;;;;5051280;28;20029;-57
2023/08/05 04:44:12;;;;;;;7.50;3.00;;;;;;;;;;5065546;28;20049;-59
2023/08/05 04:46:38;;;;;;;7.80;2.60;;;;;;;;;;5048974;28;20210;-58
2023/08/05 04:49:07;;;;;;;8.10;2.70;;;;;;;;;;5051286;28;20037;-58
2023/08/05 04:51:37;;;;;;;5.93;2.25;;;;;;;;;;5067134;28;20352;-63
2023/08/05 04:54:04;;;;;;;6.95;2.30;;;;;;;;;;5067510;28;20021;-61
2023/08/05 04:56:30;;;;;;;6.63;2.20;;;;;;;;;;5061287;28;20039;-59
2023/08/05 04:58:57;;;;;;;5.47;2.28;;;;;;;;;;5048595;28;20029;-61
2023/08/05 05:01:23;;;;;;;7.40;2.22;;;;;;;;;;5049869;28;20213;-64
2023/08/05 05:03:51;;;;;;;6.38;2.00;;;;;;;;;;5048388;28;20185;-54
2023/08/05 05:06:18;;;;;;;4.65;1.95;;;;;;;;;;5056247;28;20025;-59
2023/08/05 05:08:45;;;;;;;5.07;1.83;;;;;;;;;;5047306;28;20096;-60
2023/08/05 05:11:11;;;;;;;5.32;1.77;;;;;;;;;;5047443;28;20204;-60
2023/08/05 05:13:38;;;;;;;6.60;1.95;;;;;;;;;;5046754;28;20056;-58
2023/08/05 05:16:05;;;;;;;6.20;1.85;;;;;;;;;;5047173;28;20183;-60
2023/08/05 05:18:32;;;;;;;5.38;1.77;;;;;;;;;;5047009;28;20039;-62
2023/08/05 05:20:58;;;;;;;4.32;1.90;;;;;;;;;;5054021;28;20109;-60
2023/08/05 05:23:25;;;;;;;6.80;1.90;;;;;;;;;;5051055;28;20033;-63
2023/08/05 05:25:51;;;;;;;12.48;2.22;;;;;;;;;;5060797;28;20091;-58
2023/08/05 05:28:18;;;;;;;6.13;1.92;;;;;;;;;;5049350;28;20075;-62
2023/08/05 05:30:45;;;;;;;7.53;2.15;;;;;;;;;;5051625;28;20602;-59
2023/08/05 05:33:11;;;;;;;4.75;2.00;;;;;;;;;;5053567;28;20060;-62
2023/08/05 05:35:38;;;;;;;5.75;2.15;;;;;;;;;;5056981;28;20037;-61
2023/08/05 05:38:04;;;;;;;5.47;2.05;;;;;;;;;;5048433;28;20033;-57
2023/08/05 05:40:31;;;;;;;6.90;1.92;;;;;;;;;;5057845;28;20100;-60
2023/08/05 05:42:58;;;;;;;3.88;1.95;;;;;;;;;;5054290;28;20029;-61
2023/08/05 05:45:24;;;;;;;6.97;2.15;;;;;;;;;;5049399;28;20042;-55
2023/08/05 05:47:51;;;;;;;10.15;2.15;;;;;;;;;;5057007;28;20020;-59
2023/08/05 05:50:19;;;;;;;5.13;1.75;;;;;;;;;;5047921;28;20022;-60
2023/08/05 05:52:48;;;;;;;3.42;1.73;;;;;;;;;;5053942;28;20025;-58
2023/08/05 05:55:15;;;;;;;4.90;1.70;;;;;;;;;;5054869;28;20024;-59
2023/08/05 05:57:42;;;;;;;4.82;1.70;;;;;;;;;;5056742;28;20017;-59
2023/08/05 06:00:09;;;;;;;8.52;2.08;;;;;;;;;;5051225;28;20214;-59
2023/08/05 06:02:35;;;;;;;5.55;1.85;;;;;;;;;;5057855;28;20070;-64
2023/08/05 06:05:02;;;;;;;9.98;1.80;;;;;;;;;;5055788;28;20041;-66
2023/08/05 06:07:29;;;;;;;6.05;1.75;;;;;;;;;;5055713;28;20021;-64
2023/08/05 06:09:55;;;;;;;6.63;1.55;;;;;;;;;;5055510;28;20326;-61
2023/08/05 06:12:24;;;;;;;12.98;2.10;;;;;;;;;;5054760;28;20032;-57
2023/08/05 06:14:51;;;;;;;7.18;2.00;;;;;;;;;;5060933;28;20029;-60
2023/08/05 06:17:18;;;;;;;7.93;1.92;;;;;;;;;;5054230;28;20025;-59
2023/08/05 06:19:45;;;;;;;7.07;2.20;;;;;;;;;;5063987;28;20056;-66
2023/08/05 06:22:12;;;;;;;5.00;1.80;;;;;;;;;;5065436;28;20017;-57
2023/08/05 06:24:38;;;;;;;4.90;1.80;;;;;;;;;;5056837;28;20085;-61
2023/08/05 06:27:05;;;;;;;8.15;2.03;;;;;;;;;;5052542;28;20024;-59
2023/08/05 06:29:32;;;;;;;7.60;1.38;;;;;;;;;;5065763;28;20021;-58
2023/08/05 06:31:58;;;;;;;6.55;1.60;;;;;;;;;;5065545;28;20048;-57
2023/08/05 06:34:25;;;;;;;6.28;1.60;;;;;;;;;;5065510;28;20071;-58
2023/08/05 06:36:52;;;;;;;4.45;1.75;;;;;;;;;;5065225;28;20016;-59
2023/08/05 06:39:18;;;;;;;6.68;1.85;;;;;;;;;;5065762;28;20037;-57
2023/08/05 06:41:45;;;;;;;6.53;1.30;;;;;;;;;;5065482;28;20032;-58
2023/08/05 06:44:12;;;;;;;18.17;2.50;;;;;;;;;;5064977;28;20397;-64
2023/08/05 06:46:39;;;;;;;5.32;1.80;;;;;;;;;;5065286;28;20028;-58
2023/08/05 06:49:06;;;;;;;6.45;2.03;;;;;;;;;;5065373;28;20029;-57
2023/08/05 06:51:33;;;;;;;6.68;1.73;;;;;;;;;;5064398;28;20088;-58
2023/08/05 06:54:00;;;;;;;6.70;2.03;;;;;;;;;;5065275;28;20086;-56
2023/08/05 06:56:26;;;;;;;5.63;1.60;;;;;;;;;;5065052;28;20052;-60
2023/08/05 06:58:54;;;;;;;5.90;1.67;;;;;;;;;;5064763;28;20032;-59
2023/08/05 07:01:20;;;;;;;12.48;2.30;;;;;;;;;;5060289;28;20033;-56
2023/08/05 07:03:48;;;;;;;9.30;1.90;;;;;;;;;;5045026;28;20037;-57
2023/08/05 07:06:15;;;;;;;9.48;1.77;;;;;;;;;;5044661;28;20313;-57
2023/08/05 07:08:41;;;;;;;5.10;1.40;;;;;;;;;;5044994;28;20061;-56
2023/08/05 07:11:08;;;;;;;8.35;2.03;;;;;;;;;;5044706;28;20036;-56
2023/08/05 07:13:35;;;;;;;4.78;1.48;;;;;;;;;;5044680;28;20032;-57
2023/08/05 07:16:02;;;;;;;11.18;2.10;;;;;;;;;;5045085;28;20097;-59
2023/08/05 07:18:29;;;;;;;5.35;1.35;;;;;;;;;;5044602;28;20045;-59
2023/08/05 07:20:56;;;;;;;8.48;1.77;;;;;;;;;;5044396;28;20017;-63
2023/08/05 07:23:23;;;;;;;9.45;1.83;;;;;;;;;;5044770;28;20038;-58
2023/08/05 07:25:50;;;;;;;5.50;1.80;;;;;;;;;;5044591;28;20084;-62
2023/08/05 07:28:16;;;;;;;5.15;1.70;;;;;;;;;;5044385;28;20029;-61
2023/08/05 07:30:43;;;;;;;6.38;2.00;;;;;;;;;;5044510;28;20033;-61
2023/08/05 07:33:11;;;;;;;11.13;1.88;;;;;;;;;;5044655;28;20158;-58
2023/08/05 07:35:38;;;;;;;6.63;1.75;;;;;;;;;;5044175;28;20021;-62
2023/08/05 07:38:09;;;;;;;6.85;1.75;;;;;;;;;;5044250;28;20029;-57
2023/08/05 07:40:38;;;;;;;7.15;1.80;;;;;;;;;;5044411;28;20033;-62
2023/08/05 07:43:06;;;;;;;4.95;1.50;;;;;;;;;;5043776;28;20021;-59
2023/08/05 07:45:35;;;;;;;6.00;1.70;;;;;;;;;;5047651;28;20079;-56
2023/08/05 07:48:06;;;;;;;6.32;1.60;;;;;;;;;;5064130;28;20037;-57
2023/08/05 07:50:33;;;;;;;8.55;1.88;;;;;;;;;;5064043;28;20213;-57
2023/08/05 07:52:59;;;;;;;4.93;1.30;;;;;;;;;;5064017;28;20252;-57
2023/08/05 07:55:30;;;;;;;5.88;1.40;;;;;;;;;;5064081;28;20066;-57
2023/08/05 07:57:56;;;;;;;9.70;1.80;;;;;;;;;;5063847;28;20021;-59
2023/08/05 08:00:23;;;;;;;4.93;1.20;;;;;;;;;;5064000;28;20047;-65
2023/08/05 08:02:50;;;;;;;5.10;1.45;;;;;;;;;;5063010;28;20313;-62
2023/08/05 08:05:17;;;;;;;5.95;1.25;;;;;;;;;;5063832;28;20088;-62
2023/08/05 08:07:47;;;;;;;3.28;1.30;;;;;;;;;;5064049;28;20025;-58
2023/08/05 08:10:17;;;;;;;4.28;1.30;;;;;;;;;;5064231;28;20029;-57
2023/08/05 08:12:46;;;;;;;5.35;1.35;;;;;;;;;;5063845;28;20036;-58
2023/08/05 08:15:12;;;;;;;5.63;1.35;;;;;;;;;;5063829;28;20066;-56
2023/08/05 08:17:39;;;;;;;8.45;1.73;;;;;;;;;;5062612;28;20028;-58
2023/08/05 08:20:06;;;;;;;3.75;1.15;;;;;;;;;;5063925;28;20121;-61
2023/08/05 08:22:33;;;;;;;5.15;1.17;;;;;;;;;;5064040;28;20060;-57
2023/08/05 08:24:59;;;;;;;5.25;1.52;;;;;;;;;;5064264;28;20025;-55
2023/08/05 08:27:26;;;;;;;3.90;1.25;;;;;;;;;;5064026;28;20312;-58
2023/08/05 08:29:53;;;;;;;3.08;1.48;;;;;;;;;;5063652;28;20343;-65
2023/08/05 08:32:19;;;;;;;5.07;1.13;;;;;;;;;;5063922;28;20313;-61
2023/08/05 08:34:46;;;;;;;6.13;1.63;;;;;;;;;;5063949;28;20029;-58
2023/08/05 08:37:13;;;;;;;12.70;1.50;;;;;;;;;;5063995;28;20033;-59
2023/08/05 08:39:39;;;;;;;5.65;1.67;;;;;;;;;;5063928;28;20100;-58
2023/08/05 08:42:06;;;;;;;4.72;1.50;;;;;;;;;;5063397;28;20324;-56
2023/08/05 08:44:33;;;;;;;7.10;1.45;;;;;;;;;;5063761;28;20408;-63
2023/08/05 08:47:00;;;;;;;8.15;1.42;;;;;;;;;;5063773;28;20048;-60
2023/08/05 08:49:29;;;;;;;6.85;1.45;;;;;;;;;;5063765;28;20052;-60
2023/08/05 08:51:55;;;;;;;8.45;1.67;;;;;;;;;;5063507;28;20029;-64
2023/08/05 08:54:26;;;;;;;4.05;1.33;;;;;;;;;;5063849;28;20066;-61
2023/08/05 08:56:53;;;;;;;4.85;1.45;;;;;;;;;;5063344;28;20032;-57
2023/08/05 08:59:19;;;;;;;6.65;1.52;;;;;;;;;;5063623;28;20339;-59
2023/08/05 09:01:46;;;;;;;6.85;1.77;;;;;;;;;;5063260;28;20025;-56
2023/08/05 09:04:13;;;;;;;14.23;2.28;;;;;;;;;;5063983;28;20304;-60
2023/08/05 09:06:40;;;;;;;8.73;1.40;;;;;;;;;;5063903;28;20047;-56
2023/08/05 09:09:07;;;;;;;11.95;2.00;;;;;;;;;;5063741;28;20021;-60
2023/08/05 09:11:33;;;;;;;6.47;1.52;;;;;;;;;;5063354;28;20020;-61
2023/08/05 09:14:00;;;;;;;20.92;2.88;;;;;;;;;;5065444;28;20036;-62
2023/08/05 09:16:27;;;;;;;6.22;1.60;;;;;;;;;;5066945;28;20317;-56
2023/08/05 09:18:54;;;;;;;15.38;2.13;;;;;;;;;;5066775;28;20341;-57
2023/08/05 09:21:24;;;;;;;8.02;2.00;;;;;;;;;;5066991;28;20032;-59
2023/08/05 09:23:51;;;;;;;9.18;1.70;;;;;;;;;;5067360;28;20051;-57
2023/08/05 09:26:27;;;;;;;6.25;1.58;;;;;;;;;;5066706;28;20040;-67
2023/08/05 09:28:55;;;;;;;5.80;1.63;;;;;;;;;;5066763;28;20139;-57
2023/08/05 09:31:22;;;;;;;6.18;1.70;;;;;;;;;;5066778;28;20083;-58
2023/08/05 09:33:49;;;;;;;6.72;1.77;;;;;;;;;;5066667;28;20322;-60
2023/08/05 09:36:15;;;;;;;5.22;1.63;;;;;;;;;;5066542;28;20033;-61
2023/08/05 09:38:47;;;;;;;7.15;1.75;;;;;;;;;;5066395;28;20027;-56
2023/08/05 09:41:13;;;;;;;8.32;1.67;;;;;;;;;;5066609;28;20258;-61
2023/08/05 09:43:45;;;;;;;4.78;1.70;;;;;;;;;;5066234;28;20053;-61
2023/08/05 09:46:12;;;;;;;13.60;2.05;;;;;;;;;;5066524;28;20033;-56
2023/08/05 09:48:43;;;;;;;7.18;1.55;;;;;;;;;;5066899;28;20029;-58
2023/08/05 09:51:14;;;;;;;6.35;1.63;;;;;;;;;;5066710;28;20053;-60
2023/08/05 09:53:42;;;;;;;4.90;1.70;;;;;;;;;;5066588;28;20359;-58
2023/08/05 09:56:10;;;;;;;4.45;1.45;;;;;;;;;;5066743;28;20052;-57
2023/08/05 09:58:37;;;;;;;3.95;1.45;;;;;;;;;;5066665;28;20036;-57
2023/08/05 10:01:07;;;;;;;5.72;1.80;;;;;;;;;;5065801;28;20021;-64
2023/08/05 10:03:38;;;;;;;7.25;1.70;;;;;;;;;;5066091;28;20194;-58
2023/08/05 10:06:08;;;;;;;6.38;1.92;;;;;;;;;;5065955;28;20078;-64
2023/08/05 10:08:36;;;;;;;6.82;1.55;;;;;;;;;;5066406;28;20047;-63
2023/08/05 10:11:04;;;;;;;10.88;1.90;;;;;;;;;;5066124;28;20378;-57
2023/08/05 10:13:33;;;;;;;12.57;2.70;;;;;;;;;;5065728;28;20037;-56
2023/08/05 10:16:00;;;;;;;27.20;3.25;;;;;;;;;;5065783;28;20313;-61
2023/08/05 10:18:26;;;;;;;19.55;3.00;;;;;;;;;;5065874;28;20174;-59
2023/08/05 10:20:53;;;;;;;19.13;3.30;;;;;;;;;;5065685;28;20229;-57
2023/08/05 10:23:26;;;;;;;16.30;2.95;;;;;;;;;;5065762;28;20029;-60
2023/08/05 10:26:00;;;;;;;19.73;3.10;;;;;;;;;;5064791;28;20032;-60
2023/08/05 10:28:26;;;;;;;18.35;3.10;;;;;;;;;;5065550;28;20236;-61
2023/08/05 10:30:54;;;;;;;20.65;3.45;;;;;;;;;;5065602;28;20032;-62
2023/08/05 10:33:22;;;;;;;20.67;3.42;;;;;;;;;;5065689;28;20029;-58
2023/08/05 10:35:49;;;;;;;12.75;4.60;;;;;;;;;;5065342;28;20021;-60
2023/08/05 10:38:17;;;;;;;27.13;15.07;;;;;;;;;;5065507;28;20033;-59
2023/08/05 10:40:45;;;;;;;18.20;9.18;;;;;;;;;;5065210;28;20025;-59
2023/08/05 10:43:11;;;;;;;16.95;8.27;;;;;;;;;;5065168;28;20052;-61
2023/08/05 10:45:41;;;;;;;33.33;8.00;;;;;;;;;;5057372;28;20029;-58
2023/08/05 10:48:08;;;;;;;17.02;6.38;;;;;;;;;;5045492;28;20033;-60
2023/08/05 10:50:36;;;;;;;11.57;5.10;;;;;;;;;;5056380;28;20029;-58
2023/08/05 10:53:07;;;;;;;23.15;5.10;;;;;;;;;;5060800;28;20037;-59
2023/08/05 10:55:45;;;;;;;10.93;4.83;;;;;;;;;;5045279;28;20013;-64
2023/08/05 10:58:31;;;;;;;11.25;4.28;;;;;;;;;;5049244;28;20279;-58
2023/08/05 11:01:06;;;;;;;10.48;3.67;;;;;;;;;;5065433;28;20025;-60
2023/08/05 11:03:50;;;;;;;13.48;3.80;;;;;;;;;;5065921;28;20078;-61
2023/08/05 11:06:26;;;;;;;12.45;3.80;;;;;;;;;;5066285;28;20080;-58
2023/08/05 11:08:53;;;;;;;12.00;3.83;;;;;;;;;;5065622;28;20217;-58
2023/08/05 11:11:22;;;;;;;11.02;3.72;;;;;;;;;;5062364;28;20029;-62
2023/08/05 11:13:49;;;;;;;5.93;2.80;;;;;;;;;;5065510;28;20091;-59
2023/08/05 11:16:16;;;;;;;13.43;3.33;;;;;;;;;;5065264;28;20079;-60
2023/08/05 11:18:45;;;;;;;8.68;2.60;;;;;;;;;;5064592;28;20036;-61
2023/08/05 11:21:15;;;;;;;7.88;2.65;;;;;;;;;;5064725;28;20025;-58
2023/08/05 11:23:43;;;;;;;8.15;2.25;;;;;;;;;;5065188;28;20092;-57
2023/08/05 11:26:10;;;;;;;8.82;2.40;;;;;;;;;;5064443;28;20045;-59
2023/08/05 11:28:42;;;;;;;8.95;2.00;;;;;;;;;;5064800;28;20063;-62
2023/08/05 11:31:08;;;;;;;;;;;;;;;;;;5065031;28;20036;-59
2023/08/05 11:33:35;;;;;;;7.28;2.65;;;;;;;;;;5064287;28;19975;-56
2023/08/05 11:36:02;;;;;;;15.90;2.80;;;;;;;;;;5064487;28;20048;-56
2023/08/05 11:38:29;;;;;;;15.52;3.65;;;;;;;;;;5064468;28;20037;-58
2023/08/05 11:40:56;;;;;;;23.15;4.30;;;;;;;;;;5064482;28;20194;-56
2023/08/05 11:43:23;;;;;;;8.90;2.95;;;;;;;;;;5064104;28;20056;-60
2023/08/05 11:45:51;;;;;;;8.70;2.45;;;;;;;;;;5064329;28;20051;-54
2023/08/05 11:48:18;;;;;;;7.72;2.65;;;;;;;;;;5064179;28;20036;-54
2023/08/05 11:50:46;;;;;;;11.32;3.78;;;;;;;;;;5064468;28;20056;-54
2023/08/05 11:53:13;;;;;;;10.25;3.25;;;;;;;;;;5063719;28;20029;-57
2023/08/05 11:55:42;;;;;;;14.50;3.28;;;;;;;;;;5064159;28;20024;-54
2023/08/05 11:58:11;;;;;;;8.32;2.72;;;;;;;;;;5064159;28;20033;-57
2023/08/05 12:00:38;;;;;;;4.32;2.03;;;;;;;;;;5057428;28;20325;-61
2023/08/05 12:03:05;;;;;;;5.00;2.10;;;;;;;;;;5062531;28;20342;-54
2023/08/05 12:05:33;;;;;;;4.82;1.83;;;;;;;;;;5064010;28;20094;-59
2023/08/05 12:07:59;;;;;;;8.30;2.15;;;;;;;;;;5062941;28;20025;-56
2023/08/05 12:10:29;;;;;;;7.72;2.20;;;;;;;;;;5063827;28;20012;-57
2023/08/05 12:13:00;;;;;;;6.18;2.17;;;;;;;;;;5064049;28;20036;-61
2023/08/05 12:15:28;;;;;;;6.40;2.00;;;;;;;;;;5064039;28;20032;-57
2023/08/05 12:17:55;;;;;;;7.57;1.95;;;;;;;;;;5063388;28;20033;-54
2023/08/05 12:20:29;;;;;;;12.15;2.13;;;;;;;;;;5062130;28;20017;-58
2023/08/05 12:22:58;;;;;;;14.98;2.10;;;;;;;;;;5061947;28;20033;-59
2023/08/05 12:25:25;;;;;;;7.78;2.08;;;;;;;;;;5061935;28;20021;-57
2023/08/05 12:27:52;;;;;;;4.65;1.85;;;;;;;;;;5061876;28;20040;-55
2023/08/05 12:30:19;;;;;;;4.80;1.60;;;;;;;;;;5061810;28;20032;-60
2023/08/05 12:32:46;;;;;;;5.07;1.67;;;;;;;;;;5061988;28;20040;-56
2023/08/05 12:35:14;;;;;;;10.05;2.00;;;;;;;;;;5063742;28;20063;-54
2023/08/05 12:37:41;;;;;;;2.75;1.45;;;;;;;;;;5063574;28;20066;-53
2023/08/05 12:40:10;;;;;;;4.55;1.60;;;;;;;;;;5063661;28;20234;-57
2023/08/05 12:42:37;;;;;;;4.82;1.58;;;;;;;;;;5063517;28;20017;-59
2023/08/05 12:45:05;;;;;;;6.28;1.50;;;;;;;;;;5063289;28;20049;-58
2023/08/05 12:47:32;;;;;;;4.80;1.60;;;;;;;;;;5063460;28;20344;-55
2023/08/05 12:49:59;;;;;;;33.88;3.47;;;;;;;;;;5067703;28;20313;-52
2023/08/05 12:52:28;;;;;;;25.00;2.80;;;;;;;;;;5067307;28;20033;-59
2023/08/05 12:54:54;;;;;;;25.73;3.10;;;;;;;;;;5068194;28;20037;-57
2023/08/05 12:57:21;;;;;;;21.88;2.90;;;;;;;;;;5067259;28;20021;-58
2023/08/05 12:59:48;;;;;;;30.45;3.67;;;;;;;;;;5067609;28;20035;-58
2023/08/05 13:02:16;;;;;;;23.02;3.13;;;;;;;;;;5067404;28;20033;-59
2023/08/05 13:04:44;;;;;;;22.77;3.65;;;;;;;;;;5067514;28;20031;-55
2023/08/05 13:07:11;;;;;;;15.43;3.10;;;;;;;;;;5067080;28;20035;-57
2023/08/05 13:09:39;;;;;;;26.35;3.92;;;;;;;;;;5067415;28;20362;-58
2023/08/05 13:12:07;;;;;;;16.35;3.60;;;;;;;;;;5066971;28;20321;-57
2023/08/05 13:14:34;;;;;;;19.13;3.95;;;;;;;;;;5067311;28;20285;-56
2023/08/05 13:17:00;;;;;;;21.83;3.88;;;;;;;;;;5066921;28;20052;-57
2023/08/05 13:19:27;;;;;;;21.67;4.28;;;;;;;;;;5067316;28;20028;-56
2023/08/05 13:21:54;;;;;;;25.90;4.07;;;;;;;;;;5067110;28;20207;-60
2023/08/05 13:24:20;;;;;;;21.67;3.53;;;;;;;;;;5067246;28;20087;-62
2023/08/05 13:26:47;;;;;;;19.95;3.80;;;;;;;;;;5066815;28;20013;-56
2023/08/05 13:29:14;;;;;;;21.55;3.63;;;;;;;;;;5067107;28;20049;-56
2023/08/05 13:31:40;;;;;;;22.05;3.60;;;;;;;;;;5066965;28;20025;-55
2023/08/05 13:34:07;;;;;;;18.63;3.45;;;;;;;;;;5066806;28;20021;-55
2023/08/05 13:36:35;;;;;;;31.92;3.95;;;;;;;;;;5066690;28;20309;-56
2023/08/05 13:39:01;;;;;;;17.80;3.20;;;;;;;;;;5066964;28;20033;-63
2023/08/05 13:41:28;;;;;;;14.00;2.72;;;;;;;;;;5066973;28;20044;-60
2023/08/05 13:43:55;;;;;;;11.63;2.65;;;;;;;;;;5066726;28;20051;-55
2023/08/05 13:46:21;;;;;;;14.57;2.50;;;;;;;;;;5066565;28;20029;-58
2023/08/05 13:48:48;;;;;;;12.02;2.47;;;;;;;;;;5066828;28;20021;-59
2023/08/05 13:51:15;;;;;;;9.20;1.88;;;;;;;;;;5066259;28;20075;-61
2023/08/05 13:53:41;;;;;;;9.20;2.50;;;;;;;;;;5066989;28;20037;-56
2023/08/05 13:56:08;;;;;;;13.35;2.28;;;;;;;;;;5066304;28;20025;-57
2023/08/05 13:58:35;;;;;;;8.95;2.20;;;;;;;;;;5066294;28;20080;-56
2023/08/05 14:01:02;;;;;;;10.52;2.22;;;;;;;;;;5064586;28;20031;-65
2023/08/05 14:03:29;;;;;;;11.07;2.72;;;;;;;;;;5066699;28;20062;-56
2023/08/05 14:05:59;;;;;;;11.77;2.53;;;;;;;;;;5066151;28;20028;-55
2023/08/05 14:08:26;;;;;;;11.82;2.75;;;;;;;;;;5065937;28;20021;-58
2023/08/05 14:14:09;;;;;;;8.45;2.30;;;;;;;;;;5066023;28;20032;-55
2023/08/05 14:19:32;;;;;;;6.18;2.35;;;;;;;;;;5066481;28;20063;-57
2023/08/05 14:24:53;;;;;;;7.22;1.95;;;;;;;;;;5066650;28;20147;-55
2023/08/05 14:30:13;;;;;;;4.60;1.70;;;;;;;;;;5065792;28;20225;-56
2023/08/05 14:32:41;;;;;;;7.75;1.75;;;;;;;;;;5065620;28;20033;-55
2023/08/05 14:35:08;;;;;;;5.00;1.90;;;;;;;;;;5065458;28;20040;-59
2023/08/05 14:37:35;;;;;;;15.40;2.42;;;;;;;;;;5065672;28;20024;-55
2023/08/05 14:40:02;;;;;;;11.93;2.47;;;;;;;;;;5064240;28;20092;-57
2023/08/05 14:42:29;;;;;;;12.55;2.53;;;;;;;;;;5065185;28;20057;-56
2023/08/05 14:44:55;;;;;;;12.60;2.47;;;;;;;;;;5065231;28;20052;-56
2023/08/05 14:47:22;;;;;;;10.57;2.22;;;;;;;;;;5061845;28;20051;-60
2023/08/05 14:49:49;;;;;;;9.25;2.30;;;;;;;;;;5076713;28;20036;-58
2023/08/05 14:52:15;;;;;;;11.48;2.63;;;;;;;;;;5060871;28;20021;-54
2023/08/05 14:54:42;;;;;;;10.50;2.75;;;;;;;;;;5049813;28;20359;-52
2023/08/05 14:57:09;;;;;;;12.70;2.63;;;;;;;;;;5045107;28;20336;-56
2023/08/05 14:59:35;;;;;;;13.77;3.05;;;;;;;;;;5058245;28;20033;-55